sensor_id;sensor_type;location;lat;lon;timestamp;temperature;humidity
65378;SHT31;51982;51.042;13.806;2022-07-12T00:02:05;17.70;63.06
65378;SHT31;51982;51.042;13.806;2022-07-12T00:04:30;17.63;63.42
65378;SHT31;51982;51.042;13.806;2022-07-12T00:06:55;17.60;63.49
65378;SHT31;51982;51.042;13.806;2022-07-12T00:09:21;17.60;63.63
65378;SHT31;51982;51.042;13.806;2022-07-12T00:11:46;17.60;63.65
65378;SHT31;51982;51.042;13.806;2022-07-12T00:14:12;17.59;63.63
65378;SHT31;51982;51.042;13.806;2022-07-12T00:16:37;17.57;63.73
65378;SHT31;51982;51.042;13.806;2022-07-12T00:19:03;17.56;63.72
65378;SHT31;51982;51.042;13.806;2022-07-12T00:21:28;17.52;63.78
65378;SHT31;51982;51.042;13.806;2022-07-12T00:23:53;17.49;63.87
65378;SHT31;51982;51.042;13.806;2022-07-12T00:26:19;17.47;64.01
65378;SHT31;51982;51.042;13.806;2022-07-12T00:28:44;17.46;63.86
65378;SHT31;51982;51.042;13.806;2022-07-12T00:31:10;17.43;63.88
65378;SHT31;51982;51.042;13.806;2022-07-12T00:33:35;17.38;64.13
65378;SHT31;51982;51.042;13.806;2022-07-12T00:36:00;17.29;64.60
65378;SHT31;51982;51.042;13.806;2022-07-12T00:38:25;17.19;64.97
65378;SHT31;51982;51.042;13.806;2022-07-12T00:40:51;17.11;65.23
65378;SHT31;51982;51.042;13.806;2022-07-12T00:43:16;17.12;65.13
65378;SHT31;51982;51.042;13.806;2022-07-12T00:45:41;17.04;65.28
65378;SHT31;51982;51.042;13.806;2022-07-12T00:48:07;17.04;65.45
65378;SHT31;51982;51.042;13.806;2022-07-12T00:50:33;16.99;65.70
65378;SHT31;51982;51.042;13.806;2022-07-12T00:52:58;16.94;66.04
65378;SHT31;51982;51.042;13.806;2022-07-12T00:55:24;16.98;65.94
65378;SHT31;51982;51.042;13.806;2022-07-12T00:57:50;16.95;66.13
65378;SHT31;51982;51.042;13.806;2022-07-12T01:00:29;16.98;66.65
65378;SHT31;51982;51.042;13.806;2022-07-12T01:02:56;16.95;66.08
65378;SHT31;51982;51.042;13.806;2022-07-12T01:05:22;16.89;66.30
65378;SHT31;51982;51.042;13.806;2022-07-12T01:07:47;16.84;66.41
65378;SHT31;51982;51.042;13.806;2022-07-12T01:10:13;16.87;66.45
65378;SHT31;51982;51.042;13.806;2022-07-12T01:12:39;16.87;66.55
65378;SHT31;51982;51.042;13.806;2022-07-12T01:15:05;16.84;66.49
65378;SHT31;51982;51.042;13.806;2022-07-12T01:17:31;16.82;66.57
65378;SHT31;51982;51.042;13.806;2022-07-12T01:19:57;16.82;66.52
65378;SHT31;51982;51.042;13.806;2022-07-12T01:22:36;16.77;66.99
65378;SHT31;51982;51.042;13.806;2022-07-12T01:25:05;16.82;66.36
65378;SHT31;51982;51.042;13.806;2022-07-12T01:27:31;16.74;66.67
65378;SHT31;51982;51.042;13.806;2022-07-12T01:29:56;16.79;66.51
65378;SHT31;51982;51.042;13.806;2022-07-12T01:32:22;16.81;66.65
65378;SHT31;51982;51.042;13.806;2022-07-12T01:34:53;16.79;66.42
65378;SHT31;51982;51.042;13.806;2022-07-12T01:37:19;16.78;66.26
65378;SHT31;51982;51.042;13.806;2022-07-12T01:39:47;16.84;66.08
65378;SHT31;51982;51.042;13.806;2022-07-12T01:42:12;16.87;66.09
65378;SHT31;51982;51.042;13.806;2022-07-12T01:44:38;16.79;66.26
65378;SHT31;51982;51.042;13.806;2022-07-12T01:47:03;16.82;66.27
65378;SHT31;51982;51.042;13.806;2022-07-12T01:49:28;16.79;66.52
65378;SHT31;51982;51.042;13.806;2022-07-12T01:51:58;16.67;66.91
65378;SHT31;51982;51.042;13.806;2022-07-12T01:54:24;16.64;67.01
65378;SHT31;51982;51.042;13.806;2022-07-12T01:56:50;16.67;66.93
65378;SHT31;51982;51.042;13.806;2022-07-12T01:59:16;16.77;66.59
65378;SHT31;51982;51.042;13.806;2022-07-12T02:01:42;16.85;66.38
65378;SHT31;51982;51.042;13.806;2022-07-12T02:04:08;16.81;66.36
65378;SHT31;51982;51.042;13.806;2022-07-12T02:06:33;16.78;66.23
65378;SHT31;51982;51.042;13.806;2022-07-12T02:08:58;16.77;66.26
65378;SHT31;51982;51.042;13.806;2022-07-12T02:11:24;16.77;66.26
65378;SHT31;51982;51.042;13.806;2022-07-12T02:13:49;16.78;66.29
65378;SHT31;51982;51.042;13.806;2022-07-12T02:16:15;16.72;66.30
65378;SHT31;51982;51.042;13.806;2022-07-12T02:18:40;16.75;66.35
65378;SHT31;51982;51.042;13.806;2022-07-12T02:21:05;16.72;66.36
65378;SHT31;51982;51.042;13.806;2022-07-12T02:23:30;16.75;66.38
65378;SHT31;51982;51.042;13.806;2022-07-12T02:25:56;16.69;66.56
65378;SHT31;51982;51.042;13.806;2022-07-12T02:28:21;16.67;66.60
65378;SHT31;51982;51.042;13.806;2022-07-12T02:30:46;16.65;66.69
65378;SHT31;51982;51.042;13.806;2022-07-12T02:33:12;16.60;66.79
65378;SHT31;51982;51.042;13.806;2022-07-12T02:35:40;16.57;66.85
65378;SHT31;51982;51.042;13.806;2022-07-12T02:38:06;16.57;66.90
65378;SHT31;51982;51.042;13.806;2022-07-12T02:40:31;16.51;67.07
65378;SHT31;51982;51.042;13.806;2022-07-12T02:43:14;16.51;66.99
65378;SHT31;51982;51.042;13.806;2022-07-12T02:45:40;16.51;67.04
65378;SHT31;51982;51.042;13.806;2022-07-12T02:48:05;16.48;67.11
65378;SHT31;51982;51.042;13.806;2022-07-12T02:50:30;16.47;67.08
65378;SHT31;51982;51.042;13.806;2022-07-12T02:52:55;16.47;67.18
65378;SHT31;51982;51.042;13.806;2022-07-12T02:55:21;16.47;67.17
65378;SHT31;51982;51.042;13.806;2022-07-12T02:57:46;16.47;67.21
65378;SHT31;51982;51.042;13.806;2022-07-12T03:00:12;16.47;67.20
65378;SHT31;51982;51.042;13.806;2022-07-12T03:02:37;16.40;67.28
65378;SHT31;51982;51.042;13.806;2022-07-12T03:05:02;16.38;67.28
65378;SHT31;51982;51.042;13.806;2022-07-12T03:07:28;16.38;67.23
65378;SHT31;51982;51.042;13.806;2022-07-12T03:09:53;16.37;67.34
65378;SHT31;51982;51.042;13.806;2022-07-12T03:12:19;16.31;67.40
65378;SHT31;51982;51.042;13.806;2022-07-12T03:14:44;16.27;67.28
65378;SHT31;51982;51.042;13.806;2022-07-12T03:17:09;16.30;67.29
65378;SHT31;51982;51.042;13.806;2022-07-12T03:19:35;16.30;67.25
65378;SHT31;51982;51.042;13.806;2022-07-12T03:22:00;16.24;67.31
65378;SHT31;51982;51.042;13.806;2022-07-12T03:24:25;16.26;67.25
65378;SHT31;51982;51.042;13.806;2022-07-12T03:26:50;16.24;67.26
65378;SHT31;51982;51.042;13.806;2022-07-12T03:29:16;16.23;67.22
65378;SHT31;51982;51.042;13.806;2022-07-12T03:31:42;16.21;67.24
65378;SHT31;51982;51.042;13.806;2022-07-12T03:34:07;16.20;67.26
65378;SHT31;51982;51.042;13.806;2022-07-12T03:36:32;16.16;67.38
65378;SHT31;51982;51.042;13.806;2022-07-12T03:38:57;16.13;67.40
65378;SHT31;51982;51.042;13.806;2022-07-12T03:41:22;16.12;67.43
65378;SHT31;51982;51.042;13.806;2022-07-12T03:43:49;16.12;67.58
65378;SHT31;51982;51.042;13.806;2022-07-12T03:46:14;16.10;67.61
65378;SHT31;51982;51.042;13.806;2022-07-12T03:48:39;16.07;67.63
65378;SHT31;51982;51.042;13.806;2022-07-12T03:51:05;16.09;67.73
65378;SHT31;51982;51.042;13.806;2022-07-12T03:53:30;16.10;67.77
65378;SHT31;51982;51.042;13.806;2022-07-12T03:55:55;16.07;67.75
65378;SHT31;51982;51.042;13.806;2022-07-12T03:58:20;16.09;67.70
65378;SHT31;51982;51.042;13.806;2022-07-12T04:00:45;16.09;67.73
65378;SHT31;51982;51.042;13.806;2022-07-12T04:03:11;16.09;67.77
65378;SHT31;51982;51.042;13.806;2022-07-12T04:05:37;16.09;67.74
65378;SHT31;51982;51.042;13.806;2022-07-12T04:08:02;16.09;67.80
65378;SHT31;51982;51.042;13.806;2022-07-12T04:10:28;16.07;67.81
65378;SHT31;51982;51.042;13.806;2022-07-12T04:12:53;16.06;67.89
65378;SHT31;51982;51.042;13.806;2022-07-12T04:15:19;16.05;67.97
65378;SHT31;51982;51.042;13.806;2022-07-12T04:17:44;16.05;68.00
65378;SHT31;51982;51.042;13.806;2022-07-12T04:20:10;16.03;68.02
65378;SHT31;51982;51.042;13.806;2022-07-12T04:22:35;16.07;68.04
65378;SHT31;51982;51.042;13.806;2022-07-12T04:25:01;16.17;67.96
65378;SHT31;51982;51.042;13.806;2022-07-12T04:27:26;16.21;67.93
65378;SHT31;51982;51.042;13.806;2022-07-12T04:29:52;16.27;67.96
65378;SHT31;51982;51.042;13.806;2022-07-12T04:32:17;16.34;68.05
65378;SHT31;51982;51.042;13.806;2022-07-12T04:34:43;16.43;68.00
65378;SHT31;51982;51.042;13.806;2022-07-12T04:37:08;16.51;67.94
65378;SHT31;51982;51.042;13.806;2022-07-12T04:39:34;16.58;68.04
65378;SHT31;51982;51.042;13.806;2022-07-12T04:41:59;16.68;67.93
65378;SHT31;51982;51.042;13.806;2022-07-12T04:44:24;16.77;67.81
65378;SHT31;51982;51.042;13.806;2022-07-12T04:46:50;16.88;67.74
65378;SHT31;51982;51.042;13.806;2022-07-12T04:49:15;16.95;67.77
65378;SHT31;51982;51.042;13.806;2022-07-12T04:51:40;16.89;67.98
65378;SHT31;51982;51.042;13.806;2022-07-12T04:54:05;16.88;68.23
65378;SHT31;51982;51.042;13.806;2022-07-12T04:56:31;16.88;68.43
65378;SHT31;51982;51.042;13.806;2022-07-12T04:58:56;16.87;68.67
65378;SHT31;51982;51.042;13.806;2022-07-12T05:01:22;16.85;68.69
65378;SHT31;51982;51.042;13.806;2022-07-12T05:03:47;16.96;68.77
65378;SHT31;51982;51.042;13.806;2022-07-12T05:06:12;17.02;68.73
65378;SHT31;51982;51.042;13.806;2022-07-12T05:08:38;17.07;68.82
65378;SHT31;51982;51.042;13.806;2022-07-12T05:11:04;17.14;68.85
65378;SHT31;51982;51.042;13.806;2022-07-12T05:13:29;17.19;68.89
65378;SHT31;51982;51.042;13.806;2022-07-12T05:15:55;17.22;69.02
65378;SHT31;51982;51.042;13.806;2022-07-12T05:18:20;17.28;69.12
65378;SHT31;51982;51.042;13.806;2022-07-12T05:20:45;17.43;69.26
65378;SHT31;51982;51.042;13.806;2022-07-12T05:23:10;17.49;69.29
65378;SHT31;51982;51.042;13.806;2022-07-12T05:25:36;17.53;69.59
65378;SHT31;51982;51.042;13.806;2022-07-12T05:28:02;17.57;69.81
65378;SHT31;51982;51.042;13.806;2022-07-12T05:30:27;17.62;70.22
65378;SHT31;51982;51.042;13.806;2022-07-12T05:32:52;17.66;70.30
65378;SHT31;51982;51.042;13.806;2022-07-12T05:35:17;17.73;70.24
65378;SHT31;51982;51.042;13.806;2022-07-12T05:37:43;17.84;70.35
65378;SHT31;51982;51.042;13.806;2022-07-12T05:40:08;17.90;70.59
65378;SHT31;51982;51.042;13.806;2022-07-12T05:42:34;17.90;70.71
65378;SHT31;51982;51.042;13.806;2022-07-12T05:44:59;17.86;71.11
65378;SHT31;51982;51.042;13.806;2022-07-12T05:47:24;17.94;71.10
65378;SHT31;51982;51.042;13.806;2022-07-12T05:49:49;18.11;70.86
65378;SHT31;51982;51.042;13.806;2022-07-12T05:52:14;18.82;69.54
65378;SHT31;51982;51.042;13.806;2022-07-12T05:54:58;19.09;69.07
65378;SHT31;51982;51.042;13.806;2022-07-12T05:57:24;19.17;69.04
65378;SHT31;51982;51.042;13.806;2022-07-12T05:59:49;19.50;68.63
65378;SHT31;51982;51.042;13.806;2022-07-12T06:02:14;19.50;68.82
65378;SHT31;51982;51.042;13.806;2022-07-12T06:04:39;19.24;69.67
65378;SHT31;51982;51.042;13.806;2022-07-12T06:07:05;19.22;69.93
65378;SHT31;51982;51.042;13.806;2022-07-12T06:09:30;19.27;70.08
65378;SHT31;51982;51.042;13.806;2022-07-12T06:11:56;19.34;70.24
65378;SHT31;51982;51.042;13.806;2022-07-12T06:14:21;20.94;66.70
65378;SHT31;51982;51.042;13.806;2022-07-12T06:16:50;20.72;67.19
65378;SHT31;51982;51.042;13.806;2022-07-12T06:19:15;20.87;66.81
65378;SHT31;51982;51.042;13.806;2022-07-12T06:21:40;20.45;68.04
65378;SHT31;51982;51.042;13.806;2022-07-12T06:24:05;20.43;68.10
65378;SHT31;51982;51.042;13.806;2022-07-12T06:26:31;20.15;68.89
65378;SHT31;51982;51.042;13.806;2022-07-12T06:28:56;20.89;67.69
65378;SHT31;51982;51.042;13.806;2022-07-12T06:31:21;22.15;65.00
65378;SHT31;51982;51.042;13.806;2022-07-12T06:33:48;23.79;61.90
65378;SHT31;51982;51.042;13.806;2022-07-12T06:36:14;25.42;58.00
65378;SHT31;51982;51.042;13.806;2022-07-12T06:38:39;23.29;62.66
65378;SHT31;51982;51.042;13.806;2022-07-12T06:41:04;22.33;64.89
65378;SHT31;51982;51.042;13.806;2022-07-12T06:43:29;21.91;65.69
65378;SHT31;51982;51.042;13.806;2022-07-12T06:45:55;21.52;66.42
65378;SHT31;51982;51.042;13.806;2022-07-12T06:48:20;21.24;66.83
65378;SHT31;51982;51.042;13.806;2022-07-12T06:50:45;20.97;67.37
65378;SHT31;51982;51.042;13.806;2022-07-12T06:53:11;21.47;66.22
65378;SHT31;51982;51.042;13.806;2022-07-12T06:55:37;21.24;66.67
65378;SHT31;51982;51.042;13.806;2022-07-12T06:58:02;21.20;66.76
65378;SHT31;51982;51.042;13.806;2022-07-12T07:00:27;20.93;67.26
65378;SHT31;51982;51.042;13.806;2022-07-12T07:02:53;20.84;67.47
65378;SHT31;51982;51.042;13.806;2022-07-12T07:05:18;23.29;62.68
65378;SHT31;51982;51.042;13.806;2022-07-12T07:07:44;28.31;52.35
65378;SHT31;51982;51.042;13.806;2022-07-12T07:10:09;31.07;47.57
65378;SHT31;51982;51.042;13.806;2022-07-12T07:12:34;32.83;45.05
65378;SHT31;51982;51.042;13.806;2022-07-12T07:14:59;33.95;43.39
65378;SHT31;51982;51.042;13.806;2022-07-12T07:17:24;34.66;42.38
65378;SHT31;51982;51.042;13.806;2022-07-12T07:19:50;34.29;42.25
65378;SHT31;51982;51.042;13.806;2022-07-12T07:22:15;34.80;41.54
65378;SHT31;51982;51.042;13.806;2022-07-12T07:24:40;35.23;41.08
65378;SHT31;51982;51.042;13.806;2022-07-12T07:27:06;35.64;40.47
65378;SHT31;51982;51.042;13.806;2022-07-12T07:29:32;35.86;40.01
65378;SHT31;51982;51.042;13.806;2022-07-12T07:32:16;35.65;40.22
65378;SHT31;51982;51.042;13.806;2022-07-12T07:34:42;33.72;42.62
65378;SHT31;51982;51.042;13.806;2022-07-12T07:37:07;30.01;48.04
65378;SHT31;51982;51.042;13.806;2022-07-12T07:39:33;28.12;51.45
65378;SHT31;51982;51.042;13.806;2022-07-12T07:42:02;26.65;53.71
65378;SHT31;51982;51.042;13.806;2022-07-12T07:44:27;25.87;55.15
65378;SHT31;51982;51.042;13.806;2022-07-12T07:46:55;25.32;55.94
65378;SHT31;51982;51.042;13.806;2022-07-12T07:49:21;24.95;56.71
65378;SHT31;51982;51.042;13.806;2022-07-12T07:51:47;24.64;57.27
65378;SHT31;51982;51.042;13.806;2022-07-12T07:54:12;24.20;57.86
65378;SHT31;51982;51.042;13.806;2022-07-12T07:56:37;23.93;58.20
65378;SHT31;51982;51.042;13.806;2022-07-12T07:59:02;23.80;58.38
65378;SHT31;51982;51.042;13.806;2022-07-12T08:01:27;23.68;58.76
65378;SHT31;51982;51.042;13.806;2022-07-12T08:04:13;23.62;58.65
65378;SHT31;51982;51.042;13.806;2022-07-12T08:06:39;23.35;58.76
65378;SHT31;51982;51.042;13.806;2022-07-12T08:09:04;23.18;58.94
65378;SHT31;51982;51.042;13.806;2022-07-12T08:11:31;23.12;59.09
65378;SHT31;51982;51.042;13.806;2022-07-12T08:13:56;23.07;59.10
65378;SHT31;51982;51.042;13.806;2022-07-12T08:16:24;22.94;59.45
65378;SHT31;51982;51.042;13.806;2022-07-12T08:18:49;22.84;59.91
65378;SHT31;51982;51.042;13.806;2022-07-12T08:21:14;22.71;59.46
65378;SHT31;51982;51.042;13.806;2022-07-12T08:23:40;22.64;59.21
65378;SHT31;51982;51.042;13.806;2022-07-12T08:26:05;22.53;59.23
65378;SHT31;51982;51.042;13.806;2022-07-12T08:28:30;22.56;58.99
65378;SHT31;51982;51.042;13.806;2022-07-12T08:30:55;22.57;58.59
65378;SHT31;51982;51.042;13.806;2022-07-12T08:33:21;22.52;58.14
65378;SHT31;51982;51.042;13.806;2022-07-12T08:35:51;22.57;58.20
65378;SHT31;51982;51.042;13.806;2022-07-12T08:38:20;22.59;57.79
65378;SHT31;51982;51.042;13.806;2022-07-12T08:40:45;22.74;57.40
65378;SHT31;51982;51.042;13.806;2022-07-12T08:43:10;22.76;57.39
65378;SHT31;51982;51.042;13.806;2022-07-12T08:45:36;22.66;56.68
65378;SHT31;51982;51.042;13.806;2022-07-12T08:48:01;22.67;56.31
65378;SHT31;51982;51.042;13.806;2022-07-12T08:50:26;22.59;56.20
65378;SHT31;51982;51.042;13.806;2022-07-12T08:52:53;22.53;56.41
65378;SHT31;51982;51.042;13.806;2022-07-12T08:55:33;22.60;53.30
65378;SHT31;51982;51.042;13.806;2022-07-12T08:58:03;22.76;55.21
65378;SHT31;51982;51.042;13.806;2022-07-12T09:00:32;22.81;54.79
65378;SHT31;51982;51.042;13.806;2022-07-12T09:03:00;22.96;54.33
65378;SHT31;51982;51.042;13.806;2022-07-12T09:05:27;23.18;54.03
65378;SHT31;51982;51.042;13.806;2022-07-12T09:08:08;23.29;53.23
65378;SHT31;51982;51.042;13.806;2022-07-12T09:10:35;23.32;53.79
65378;SHT31;51982;51.042;13.806;2022-07-12T09:13:16;23.25;54.01
65378;SHT31;51982;51.042;13.806;2022-07-12T09:15:41;23.10;54.38
65378;SHT31;51982;51.042;13.806;2022-07-12T09:18:07;23.07;54.43
65378;SHT31;51982;51.042;13.806;2022-07-12T09:20:41;23.28;53.86
65378;SHT31;51982;51.042;13.806;2022-07-12T09:23:11;23.55;52.70
65378;SHT31;51982;51.042;13.806;2022-07-12T09:25:37;23.24;51.86
65378;SHT31;51982;51.042;13.806;2022-07-12T09:28:05;23.14;52.47
65378;SHT31;51982;51.042;13.806;2022-07-12T09:30:31;23.07;52.65
65378;SHT31;51982;51.042;13.806;2022-07-12T09:33:01;23.06;52.59
65378;SHT31;51982;51.042;13.806;2022-07-12T09:36:00;23.11;51.68
65378;SHT31;51982;51.042;13.806;2022-07-12T09:38:36;23.35;52.03
65378;SHT31;51982;51.042;13.806;2022-07-12T09:41:03;23.47;51.69
65378;SHT31;51982;51.042;13.806;2022-07-12T09:43:28;23.39;51.10
65378;SHT31;51982;51.042;13.806;2022-07-12T09:45:55;23.29;51.07
65378;SHT31;51982;51.042;13.806;2022-07-12T09:48:20;23.37;51.00
65378;SHT31;51982;51.042;13.806;2022-07-12T09:50:50;23.57;50.57
65378;SHT31;51982;51.042;13.806;2022-07-12T09:53:28;23.72;50.07
65378;SHT31;51982;51.042;13.806;2022-07-12T09:55:53;23.76;50.44
65378;SHT31;51982;51.042;13.806;2022-07-12T09:58:23;23.69;50.32
65378;SHT31;51982;51.042;13.806;2022-07-12T10:00:51;23.65;50.34
65378;SHT31;51982;51.042;13.806;2022-07-12T10:03:20;23.62;50.45
65378;SHT31;51982;51.042;13.806;2022-07-12T10:05:45;23.54;50.32
65378;SHT31;51982;51.042;13.806;2022-07-12T10:08:11;23.54;50.24
65378;SHT31;51982;51.042;13.806;2022-07-12T10:10:36;23.68;50.53
65378;SHT31;51982;51.042;13.806;2022-07-12T10:13:02;23.76;49.22
65378;SHT31;51982;51.042;13.806;2022-07-12T10:15:29;23.85;47.88
65378;SHT31;51982;51.042;13.806;2022-07-12T10:17:59;24.08;47.54
65378;SHT31;51982;51.042;13.806;2022-07-12T10:20:26;24.26;47.48
65378;SHT31;51982;51.042;13.806;2022-07-12T10:23:26;24.29;47.53
65378;SHT31;51982;51.042;13.806;2022-07-12T10:25:41;24.26;48.09
65378;SHT31;51982;51.042;13.806;2022-07-12T10:28:06;24.21;48.10
65378;SHT31;51982;51.042;13.806;2022-07-12T10:30:41;24.17;47.02
65378;SHT31;51982;51.042;13.806;2022-07-12T10:33:15;24.30;46.65
65378;SHT31;51982;51.042;13.806;2022-07-12T10:36:00;24.50;45.59
65378;SHT31;51982;51.042;13.806;2022-07-12T10:38:26;24.65;46.41
65378;SHT31;51982;51.042;13.806;2022-07-12T10:40:52;24.50;45.82
65378;SHT31;51982;51.042;13.806;2022-07-12T10:43:24;24.53;45.06
65378;SHT31;51982;51.042;13.806;2022-07-12T10:46:22;24.44;43.90
65378;SHT31;51982;51.042;13.806;2022-07-12T10:48:49;24.43;45.00
65378;SHT31;51982;51.042;13.806;2022-07-12T10:51:16;24.53;44.87
65378;SHT31;51982;51.042;13.806;2022-07-12T10:53:44;24.64;44.42
65378;SHT31;51982;51.042;13.806;2022-07-12T10:56:23;24.61;43.51
65378;SHT31;51982;51.042;13.806;2022-07-12T11:01:27;24.40;45.01
65378;SHT31;51982;51.042;13.806;2022-07-12T11:03:58;24.26;44.38
65378;SHT31;51982;51.042;13.806;2022-07-12T11:06:27;24.43;45.00
65378;SHT31;51982;51.042;13.806;2022-07-12T11:09:01;24.53;43.96
65378;SHT31;51982;51.042;13.806;2022-07-12T11:11:29;24.61;43.60
65378;SHT31;51982;51.042;13.806;2022-07-12T11:13:55;24.77;43.58
65378;SHT31;51982;51.042;13.806;2022-07-12T11:16:22;24.90;43.86
65378;SHT31;51982;51.042;13.806;2022-07-12T11:18:48;24.82;43.88
65378;SHT31;51982;51.042;13.806;2022-07-12T11:21:14;24.84;43.92
65378;SHT31;51982;51.042;13.806;2022-07-12T11:23:39;24.84;43.81
65378;SHT31;51982;51.042;13.806;2022-07-12T11:26:09;24.84;43.71
65378;SHT31;51982;51.042;13.806;2022-07-12T11:28:34;24.95;43.58
65378;SHT31;51982;51.042;13.806;2022-07-12T11:31:08;25.07;42.90
65378;SHT31;51982;51.042;13.806;2022-07-12T11:33:35;25.22;43.04
65378;SHT31;51982;51.042;13.806;2022-07-12T11:36:08;25.31;42.85
65378;SHT31;51982;51.042;13.806;2022-07-12T11:38:35;25.14;43.25
65378;SHT31;51982;51.042;13.806;2022-07-12T11:41:03;24.98;43.07
65378;SHT31;51982;51.042;13.806;2022-07-12T11:43:29;25.04;43.03
65378;SHT31;51982;51.042;13.806;2022-07-12T11:45:55;25.21;43.37
65378;SHT31;51982;51.042;13.806;2022-07-12T11:48:21;25.52;42.95
65378;SHT31;51982;51.042;13.806;2022-07-12T11:50:46;25.61;42.44
65378;SHT31;51982;51.042;13.806;2022-07-12T11:55:46;25.72;42.46
65378;SHT31;51982;51.042;13.806;2022-07-12T11:58:13;25.69;42.15
65378;SHT31;51982;51.042;13.806;2022-07-12T12:00:38;25.70;42.46
65378;SHT31;51982;51.042;13.806;2022-07-12T12:03:04;25.70;42.40
65378;SHT31;51982;51.042;13.806;2022-07-12T12:05:30;25.69;42.55
65378;SHT31;51982;51.042;13.806;2022-07-12T12:07:55;25.67;42.47
65378;SHT31;51982;51.042;13.806;2022-07-12T12:10:21;25.47;42.37
65378;SHT31;51982;51.042;13.806;2022-07-12T12:12:48;25.55;42.44
65378;SHT31;51982;51.042;13.806;2022-07-12T12:15:16;25.53;42.30
65378;SHT31;51982;51.042;13.806;2022-07-12T12:17:57;25.56;42.47
65378;SHT31;51982;51.042;13.806;2022-07-12T12:20:25;25.52;42.53
65378;SHT31;51982;51.042;13.806;2022-07-12T12:22:52;25.45;42.52
65378;SHT31;51982;51.042;13.806;2022-07-12T12:25:21;25.42;42.22
65378;SHT31;51982;51.042;13.806;2022-07-12T12:27:57;25.42;42.18
65378;SHT31;51982;51.042;13.806;2022-07-12T12:30:23;25.50;42.38
65378;SHT31;51982;51.042;13.806;2022-07-12T12:32:51;25.52;42.39
65378;SHT31;51982;51.042;13.806;2022-07-12T12:35:22;25.49;42.01
65378;SHT31;51982;51.042;13.806;2022-07-12T12:37:52;25.55;41.62
65378;SHT31;51982;51.042;13.806;2022-07-12T12:40:19;25.56;42.03
65378;SHT31;51982;51.042;13.806;2022-07-12T12:42:45;25.56;42.27
65378;SHT31;51982;51.042;13.806;2022-07-12T12:45:22;25.66;41.76
65378;SHT31;51982;51.042;13.806;2022-07-12T12:48:03;25.67;41.31
65378;SHT31;51982;51.042;13.806;2022-07-12T12:51:05;25.79;41.00
65378;SHT31;51982;51.042;13.806;2022-07-12T12:53:31;26.00;41.74
65378;SHT31;51982;51.042;13.806;2022-07-12T12:55:56;26.03;41.54
65378;SHT31;51982;51.042;13.806;2022-07-12T12:58:24;26.03;41.31
65378;SHT31;51982;51.042;13.806;2022-07-12T13:00:51;25.98;41.11
65378;SHT31;51982;51.042;13.806;2022-07-12T13:03:19;26.07;41.23
65378;SHT31;51982;51.042;13.806;2022-07-12T13:05:45;26.21;41.38
65378;SHT31;51982;51.042;13.806;2022-07-12T13:08:11;26.30;41.09
65378;SHT31;51982;51.042;13.806;2022-07-12T13:10:38;26.34;40.95
65378;SHT31;51982;51.042;13.806;2022-07-12T13:13:04;26.27;40.52
65378;SHT31;51982;51.042;13.806;2022-07-12T13:15:30;26.20;40.63
65378;SHT31;51982;51.042;13.806;2022-07-12T13:17:56;26.03;40.80
65378;SHT31;51982;51.042;13.806;2022-07-12T13:20:23;26.06;40.82
65378;SHT31;51982;51.042;13.806;2022-07-12T13:22:48;25.97;40.84
65378;SHT31;51982;51.042;13.806;2022-07-12T13:25:14;25.89;41.27
65378;SHT31;51982;51.042;13.806;2022-07-12T13:27:41;25.87;41.23
65378;SHT31;51982;51.042;13.806;2022-07-12T13:30:09;25.83;41.32
65378;SHT31;51982;51.042;13.806;2022-07-12T13:32:35;25.63;41.58
65378;SHT31;51982;51.042;13.806;2022-07-12T13:35:01;25.59;41.18
65378;SHT31;51982;51.042;13.806;2022-07-12T13:37:27;25.70;41.09
65378;SHT31;51982;51.042;13.806;2022-07-12T13:39:52;25.80;41.31
65378;SHT31;51982;51.042;13.806;2022-07-12T13:42:47;25.80;41.59
65378;SHT31;51982;51.042;13.806;2022-07-12T13:45:19;25.74;41.80
65378;SHT31;51982;51.042;13.806;2022-07-12T13:47:45;25.84;41.85
65378;SHT31;51982;51.042;13.806;2022-07-12T13:50:13;25.96;41.70
65378;SHT31;51982;51.042;13.806;2022-07-12T13:52:39;26.13;41.85
65378;SHT31;51982;51.042;13.806;2022-07-12T13:55:06;26.20;41.53
65378;SHT31;51982;51.042;13.806;2022-07-12T13:57:34;26.08;41.43
65378;SHT31;51982;51.042;13.806;2022-07-12T13:59:59;26.08;41.75
65378;SHT31;51982;51.042;13.806;2022-07-12T14:02:25;26.01;41.47
65378;SHT31;51982;51.042;13.806;2022-07-12T14:04:51;26.04;41.31
65378;SHT31;51982;51.042;13.806;2022-07-12T14:07:16;26.21;41.52
65378;SHT31;51982;51.042;13.806;2022-07-12T14:09:41;26.24;41.33
65378;SHT31;51982;51.042;13.806;2022-07-12T14:12:06;26.10;41.65
65378;SHT31;51982;51.042;13.806;2022-07-12T14:14:34;25.94;42.01
65378;SHT31;51982;51.042;13.806;2022-07-12T14:17:18;25.83;42.03
65378;SHT31;51982;51.042;13.806;2022-07-12T14:19:44;25.86;41.95
65378;SHT31;51982;51.042;13.806;2022-07-12T14:22:10;25.90;41.33
65378;SHT31;51982;51.042;13.806;2022-07-12T14:24:35;25.89;41.08
65378;SHT31;51982;51.042;13.806;2022-07-12T14:27:00;25.83;40.84
65378;SHT31;51982;51.042;13.806;2022-07-12T14:29:26;25.86;40.93
65378;SHT31;51982;51.042;13.806;2022-07-12T14:31:51;25.92;40.91
65378;SHT31;51982;51.042;13.806;2022-07-12T14:34:17;25.93;40.94
65378;SHT31;51982;51.042;13.806;2022-07-12T14:36:44;25.89;41.24
65378;SHT31;51982;51.042;13.806;2022-07-12T14:39:09;25.90;40.95
65378;SHT31;51982;51.042;13.806;2022-07-12T14:41:34;25.93;40.87
65378;SHT31;51982;51.042;13.806;2022-07-12T14:43:59;25.98;40.33
65378;SHT31;51982;51.042;13.806;2022-07-12T14:46:25;25.90;40.33
65378;SHT31;51982;51.042;13.806;2022-07-12T14:48:50;25.82;40.60
65378;SHT31;51982;51.042;13.806;2022-07-12T14:51:15;25.74;40.70
65378;SHT31;51982;51.042;13.806;2022-07-12T14:53:40;25.62;40.68
65378;SHT31;51982;51.042;13.806;2022-07-12T14:56:06;25.55;40.96
65378;SHT31;51982;51.042;13.806;2022-07-12T14:58:32;25.55;40.56
65378;SHT31;51982;51.042;13.806;2022-07-12T15:00:58;25.49;40.70
65378;SHT31;51982;51.042;13.806;2022-07-12T15:03:23;25.45;40.39
65378;SHT31;51982;51.042;13.806;2022-07-12T15:05:48;25.53;40.26
65378;SHT31;51982;51.042;13.806;2022-07-12T15:08:13;25.65;40.33
65378;SHT31;51982;51.042;13.806;2022-07-12T15:10:39;25.65;40.47
65378;SHT31;51982;51.042;13.806;2022-07-12T15:13:04;25.65;40.35
65378;SHT31;51982;51.042;13.806;2022-07-12T15:15:29;25.70;40.65
65378;SHT31;51982;51.042;13.806;2022-07-12T15:17:55;25.73;40.61
65378;SHT31;51982;51.042;13.806;2022-07-12T15:20:21;25.73;40.61